createdAt,value
2023-01-13T17:35:19.194Z,101825.70
2023-01-13T17:37:48.845Z,101824.95
2023-01-13T17:40:18.262Z,101828.34
2023-01-13T17:42:47.483Z,101828.91
2023-01-13T17:45:16.798Z,101828.46
2023-01-13T17:47:47.414Z,101829.74
2023-01-13T17:50:18.230Z,101831.34
2023-01-13T17:52:47.298Z,101826.77
2023-01-13T17:55:16.835Z,101827.31
2023-01-13T17:57:46.178Z,101830.29
2023-01-13T18:00:16.648Z,101823.85
2023-01-13T18:02:45.804Z,101825.10
2023-01-13T18:05:14.751Z,101825.18
2023-01-13T18:07:43.770Z,101818.50
2023-01-13T18:10:12.446Z,101820.22
2023-01-13T18:12:41.436Z,101817.30
2023-01-13T18:15:13.183Z,101819.73
2023-01-13T18:17:42.429Z,101818.48
2023-01-13T18:20:37.735Z,101818.19
2023-01-13T18:23:35.585Z,101819.61
2023-01-13T18:26:37.584Z,101819.80
2023-01-13T18:29:07.262Z,101821.39
2023-01-13T18:31:38.551Z,101823.58
2023-01-13T18:34:08.604Z,101825.73
2023-01-13T18:36:39.125Z,101823.05
2023-01-13T18:39:12.787Z,101820.02
2023-01-13T18:42:00.736Z,101819.73
2023-01-13T18:44:29.878Z,101816.36
2023-01-13T18:46:59.502Z,101817.74
2023-01-13T18:49:28.509Z,101815.35
2023-01-13T18:51:57.407Z,101816.76
2023-01-13T18:54:26.658Z,101819.01
2023-01-13T18:56:56.399Z,101820.14
2023-01-13T18:59:26.766Z,101823.55
2023-01-13T19:01:55.773Z,101821.93
2023-01-13T19:04:25.539Z,101824.63
2023-01-13T19:07:00.620Z,101828.16
2023-01-13T19:09:29.992Z,101825.52
2023-01-13T19:12:01.343Z,101820.20
2023-01-13T19:14:42.257Z,101818.63
2023-01-13T19:17:14.206Z,101818.93
2023-01-13T19:19:44.856Z,101814.16
2023-01-13T19:22:17.556Z,101816.77
2023-01-13T19:24:46.845Z,101816.45
2023-01-13T19:27:17.852Z,101815.76
2023-01-13T19:29:52.318Z,101812.59
2023-01-13T19:32:22.620Z,101808.00
2023-01-13T19:34:51.841Z,101810.98
2023-01-13T19:37:20.882Z,101813.45
2023-01-13T19:39:49.678Z,101810.95
2023-01-13T19:42:36.649Z,101812.98
2023-01-13T19:45:25.557Z,101817.41
2023-01-13T19:47:58.437Z,101819.41
2023-01-13T19:50:27.520Z,101815.17
2023-01-13T19:52:56.344Z,101813.06
2023-01-13T19:55:24.976Z,101810.91
2023-01-13T19:57:53.984Z,101811.98
2023-01-13T20:00:23.959Z,101814.02
2023-01-13T20:02:53.607Z,101821.48
2023-01-13T20:05:25.972Z,101821.61
2023-01-13T20:07:55.071Z,101820.84
2023-01-13T20:10:25.798Z,101823.24
2023-01-13T20:12:54.500Z,101823.98
2023-01-13T20:15:24.424Z,101823.22
2023-01-13T20:17:53.449Z,101817.88
2023-01-13T20:20:22.485Z,101813.83
2023-01-13T20:22:51.464Z,101810.90
2023-01-13T20:25:20.486Z,101810.31
2023-01-13T20:27:49.280Z,101808.80
2023-01-13T20:30:18.266Z,101810.77
2023-01-13T20:32:47.157Z,101808.90
2023-01-13T20:35:16.321Z,101809.64
2023-01-13T20:37:45.154Z,101811.77
2023-01-13T20:40:16.404Z,101813.27
2023-01-13T20:42:45.442Z,101812.50
2023-01-13T20:45:20.844Z,101805.02
2023-01-13T20:47:50.724Z,101803.41
2023-01-13T20:50:20.134Z,101806.49
2023-01-13T20:52:49.057Z,101806.92
2023-01-13T20:55:18.135Z,101806.23
2023-01-13T20:57:49.352Z,101806.94
2023-01-13T21:00:19.235Z,101806.61
2023-01-13T21:02:48.561Z,101804.64
2023-01-13T21:05:17.886Z,101801.27
2023-01-13T21:07:47.013Z,101799.23
2023-01-13T21:10:16.386Z,101797.64
2023-01-13T21:13:03.995Z,101795.48
2023-01-13T21:15:33.217Z,101795.99
2023-01-13T21:18:21.897Z,101793.26
2023-01-13T21:21:11.901Z,101793.52
2023-01-13T21:23:42.988Z,101789.52
2023-01-13T21:26:13.809Z,101793.85
2023-01-13T21:28:43.376Z,101796.20
2023-01-13T21:31:13.633Z,101799.10
2023-01-13T21:33:42.632Z,101800.38
2023-01-13T21:36:16.132Z,101798.70
2023-01-13T21:38:45.097Z,101798.51
2023-01-13T21:41:15.469Z,101796.59
2023-01-13T21:44:03.118Z,101796.45
2023-01-13T21:46:50.871Z,101794.17
2023-01-13T21:49:19.742Z,101794.52
2023-01-13T21:51:48.697Z,101792.90
2023-01-13T21:54:17.486Z,101791.92
2023-01-13T21:56:47.958Z,101787.50
2023-01-13T21:59:17.036Z,101785.20
2023-01-13T22:02:10.438Z,101786.05
2023-01-13T22:04:35.733Z,101783.39
2023-01-13T22:07:06.794Z,101781.02
2023-01-13T22:09:36.696Z,101779.48
2023-01-13T22:12:06.135Z,101778.05
2023-01-13T22:14:36.935Z,101774.27
2023-01-13T22:17:06.112Z,101777.08
2023-01-13T22:19:39.434Z,101777.10
2023-01-13T22:22:14.408Z,101774.23
2023-01-13T22:24:43.985Z,101772.65
2023-01-13T22:27:31.236Z,101774.02
2023-01-13T22:30:00.504Z,101772.16
2023-01-13T22:32:29.629Z,101769.23
2023-01-13T22:34:58.406Z,101771.09
2023-01-13T22:37:27.193Z,101770.61
2023-01-13T22:39:56.284Z,101771.15
2023-01-13T22:42:25.193Z,101765.73
2023-01-13T22:44:53.956Z,101766.60
2023-01-13T22:47:22.648Z,101761.38
2023-01-13T22:49:52.010Z,101760.31
2023-01-13T22:52:22.597Z,101761.95
2023-01-13T22:54:51.493Z,101756.14
2023-01-13T22:57:21.862Z,101756.84
2023-01-13T22:59:52.654Z,101756.05
2023-01-13T23:02:21.618Z,101756.02
2023-01-13T23:04:50.671Z,101759.75
2023-01-13T23:07:19.662Z,101757.73
2023-01-13T23:09:48.725Z,101755.65
2023-01-13T23:12:17.463Z,101754.20
2023-01-13T23:14:46.164Z,101750.58
2023-01-13T23:17:15.227Z,101750.95
2023-01-13T23:19:44.071Z,101752.03
2023-01-13T23:22:14.168Z,101757.46
2023-01-13T23:24:43.171Z,101760.32
2023-01-13T23:27:12.140Z,101757.52
2023-01-13T23:29:41.230Z,101752.77
2023-01-13T23:32:10.141Z,101750.95
2023-01-13T23:34:39.180Z,101751.26
2023-01-13T23:37:08.248Z,101756.83
2023-01-13T23:39:37.072Z,101760.02
2023-01-13T23:42:06.203Z,101757.59
2023-01-13T23:44:35.249Z,101758.92
2023-01-13T23:47:04.151Z,101754.83
2023-01-13T23:49:33.079Z,101752.34
2023-01-13T23:52:01.963Z,101753.05
2023-01-13T23:54:30.807Z,101753.27
2023-01-13T23:57:00.849Z,101752.52
2023-01-13T23:59:29.641Z,101754.73
